Time;durP1;ratioP1;P1;durP2;ratioP2;P2;SDS_P1;SDS_P2;PMS_P1;PMS_P2;Temp;Humidity;BMP_temperature;BMP_pressure;BME280_temperature;BME280_humidity;BME280_pressure;Samples;Min_cycle;Max_cycle;Signal;HPM_P1;HPM_P2
2021/10/24 00:02:02;;;;;;;28.13;16.40;;;;;;;10.66;75.89;102761.13;4924814;28;20090;-57
2021/10/24 00:04:28;;;;;;;23.60;15.00;;;;;;;10.60;75.49;102756.53;4920836;28;20363;-54
2021/10/24 00:06:53;;;;;;;25.48;16.13;;;;;;;10.54;75.42;102757.16;4919360;28;20039;-53
2021/10/24 00:09:20;;;;;;;25.73;15.30;;;;;;;10.50;75.11;102752.63;4927303;28;20344;-57
2021/10/24 00:11:45;;;;;;;22.95;15.10;;;;;;;10.43;75.17;102760.13;4919146;28;20252;-55
2021/10/24 00:14:11;;;;;;;22.38;15.30;;;;;;;10.36;75.15;102761.56;4925832;28;20043;-56
2021/10/24 00:16:36;;;;;;;25.10;15.55;;;;;;;10.27;75.36;102749.81;4926761;28;20051;-52
2021/10/24 00:19:03;;;;;;;26.33;15.57;;;;;;;10.25;75.35;102752.34;4919965;29;20383;-54
2021/10/24 00:21:28;;;;;;;23.38;14.85;;;;;;;10.15;75.43;102751.03;4925477;28;20055;-55
2021/10/24 00:23:53;;;;;;;22.45;14.32;;;;;;;10.12;75.19;102752.63;4923826;28;20110;-55
2021/10/24 00:26:19;;;;;;;19.73;13.07;;;;;;;10.07;75.09;102748.88;4922572;28;20157;-56
2021/10/24 00:28:45;;;;;;;28.20;15.63;;;;;;;10.04;75.63;102749.66;4922950;28;20102;-54
2021/10/24 00:31:10;;;;;;;27.25;16.20;;;;;;;10.03;75.71;102744.38;4918244;28;20071;-55
2021/10/24 00:33:35;;;;;;;29.13;16.90;;;;;;;10.00;76.04;102746.84;4925869;28;20479;-53
2021/10/24 00:36:01;;;;;;;27.80;15.93;;;;;;;10.04;76.40;102747.06;4921728;28;20031;-53
2021/10/24 00:38:26;;;;;;;32.88;18.08;;;;;;;10.00;76.72;102750.31;4927115;28;20391;-55
2021/10/24 00:40:52;;;;;;;31.25;17.85;;;;;;;10.07;76.38;102743.69;4919501;28;20058;-54
2021/10/24 00:43:17;;;;;;;26.73;17.55;;;;;;;10.09;76.51;102748.16;4925850;28;20186;-56
2021/10/24 00:45:43;;;;;;;29.75;16.80;;;;;;;10.13;76.59;102742.25;4925210;28;20550;-53
2021/10/24 00:48:08;;;;;;;26.17;15.73;;;;;;;10.14;76.31;102744.03;4925313;28;20483;-55
2021/10/24 00:50:35;;;;;;;31.58;17.40;;;;;;;10.11;76.16;102738.69;4925066;28;20058;-53
2021/10/24 00:53:00;;;;;;;26.27;16.90;;;;;;;10.13;76.75;102744.84;4919836;28;20379;-54
2021/10/24 00:55:26;;;;;;;27.23;16.17;;;;;;;10.18;76.37;102737.28;4924000;28;20037;-52
2021/10/24 00:57:52;;;;;;;29.95;17.20;;;;;;;10.19;76.80;102739.03;4930162;28;20094;-54
2021/10/24 01:00:17;;;;;;;26.00;16.92;;;;;;;10.37;76.70;102734.66;4923425;28;20042;-55
2021/10/24 01:02:43;;;;;;;27.38;16.48;;;;;;;10.39;76.35;102732.13;4922856;28;20062;-56
2021/10/24 01:05:10;;;;;;;29.35;17.67;;;;;;;10.46;76.22;102723.75;4916607;28;20059;-53
2021/10/24 01:07:38;;;;;;;26.23;15.50;;;;;;;10.55;76.08;102730.22;4922730;28;20050;-55
2021/10/24 01:10:05;;;;;;;27.00;16.27;;;;;;;10.48;76.03;102729.91;4928513;28;20102;-54
2021/10/24 01:12:31;;;;;;;27.30;16.35;;;;;;;10.43;75.44;102724.47;4917742;28;20051;-56
2021/10/24 01:14:56;;;;;;;24.63;15.52;;;;;;;10.44;75.50;102725.38;4917314;28;20114;-52
2021/10/24 01:17:23;;;;;;;23.90;15.98;;;;;;;10.39;75.35;102724.28;4919464;28;20476;-53
2021/10/24 01:19:48;;;;;;;28.80;17.23;;;;;;;10.34;75.62;102720.59;4927362;28;20050;-56
2021/10/24 01:22:14;;;;;;;25.23;15.90;;;;;;;10.33;75.10;102711.88;4920240;28;20039;-53
2021/10/24 01:24:39;;;;;;;27.63;15.07;;;;;;;10.27;75.53;102711.63;4923728;28;20031;-55
2021/10/24 01:27:05;;;;;;;23.00;15.20;;;;;;;10.23;75.00;102714.91;4921113;28;21667;-56
2021/10/24 01:29:31;;;;;;;24.17;14.52;;;;;;;10.17;75.53;102706.84;4925647;29;20619;-55
2021/10/24 01:31:56;;;;;;;24.20;14.90;;;;;;;10.18;75.56;102705.13;4927077;28;20051;-55
2021/10/24 01:34:21;;;;;;;24.52;15.18;;;;;;;10.15;75.18;102714.53;4928286;28;21043;-56
2021/10/24 01:36:47;;;;;;;22.55;14.40;;;;;;;10.12;75.29;102705.72;4922471;28;20122;-54
2021/10/24 01:39:13;;;;;;;22.33;13.98;;;;;;;10.02;75.78;102703.50;4926954;28;20039;-55
2021/10/24 01:41:39;;;;;;;24.70;15.77;;;;;;;9.92;75.31;102709.13;4927108;28;20039;-53
2021/10/24 01:44:08;;;;;;;23.13;14.05;;;;;;;9.86;75.30;102699.31;4928802;28;20286;-51
2021/10/24 01:46:33;;;;;;;27.60;16.65;;;;;;;9.83;76.04;102701.78;4936725;28;20047;-54
2021/10/24 01:48:59;;;;;;;26.80;15.00;;;;;;;9.83;75.51;102700.88;4921734;28;20043;-54
2021/10/24 01:51:24;;;;;;;24.88;15.02;;;;;;;9.78;75.72;102695.47;4924591;28;20070;-54
2021/10/24 01:53:50;;;;;;;22.92;13.93;;;;;;;9.75;75.03;102695.34;4925943;28;20050;-54
2021/10/24 01:56:16;;;;;;;26.15;14.43;;;;;;;9.70;75.64;102700.31;4926978;28;20561;-54
2021/10/24 01:58:42;;;;;;;22.58;14.93;;;;;;;9.69;75.26;102690.75;4924150;28;21348;-54
2021/10/24 02:01:08;;;;;;;26.67;16.33;;;;;;;9.65;75.69;102696.63;4920017;28;20039;-54
2021/10/24 02:03:33;;;;;;;28.27;17.35;;;;;;;9.65;76.06;102687.91;4925343;28;20565;-52
2021/10/24 02:05:59;;;;;;;34.63;19.33;;;;;;;9.61;77.00;102692.09;4925546;28;20058;-54
2021/10/24 02:08:24;;;;;;;28.90;18.40;;;;;;;9.74;77.00;102688.34;4921780;28;20042;-50
2021/10/24 02:10:51;;;;;;;34.95;20.55;;;;;;;9.81;76.92;102690.41;4918285;28;20046;-56
2021/10/24 02:13:17;;;;;;;32.35;18.17;;;;;;;9.78;77.10;102685.06;4930537;28;20333;-53
2021/10/24 02:15:42;;;;;;;30.42;18.30;;;;;;;9.88;76.97;102670.75;4928258;28;20054;-55
2021/10/24 02:18:09;;;;;;;29.70;17.55;;;;;;;9.86;76.39;102672.38;4922581;28;20047;-52
2021/10/24 02:20:35;;;;;;;31.70;17.92;;;;;;;9.61;77.15;102676.47;4922302;28;20044;-53
2021/10/24 02:23:01;;;;;;;27.70;17.63;;;;;;;9.79;76.06;102668.59;4922268;28;20442;-53
2021/10/24 02:25:27;;;;;;;29.08;17.80;;;;;;;9.80;76.00;102667.78;4922448;28;20903;-54
2021/10/24 02:27:52;;;;;;;29.73;17.65;;;;;;;9.81;75.94;102666.09;4925148;28;20042;-53
2021/10/24 02:30:18;;;;;;;30.58;18.15;;;;;;;9.75;76.07;102664.09;4923872;28;20450;-55
2021/10/24 02:32:44;;;;;;;28.73;17.58;;;;;;;9.74;75.71;102660.59;4921617;28;20142;-54
2021/10/24 02:35:11;;;;;;;34.83;18.27;;;;;;;9.75;75.66;102662.38;4923603;28;20062;-55
2021/10/24 02:37:36;;;;;;;30.15;17.73;;;;;;;9.70;75.48;102652.56;4924694;28;20055;-52
2021/10/24 02:40:04;;;;;;;31.45;18.40;;;;;;;9.61;76.19;102659.97;4921955;28;20485;-54
2021/10/24 02:42:29;;;;;;;31.75;17.92;;;;;;;9.61;76.14;102654.75;4928142;28;20043;-55
2021/10/24 02:44:55;;;;;;;34.35;20.00;;;;;;;9.46;77.19;102654.94;4920815;28;20105;-51
2021/10/24 02:47:21;;;;;;;31.73;18.60;;;;;;;9.57;76.78;102656.34;4926056;28;20047;-54
2021/10/24 02:49:46;;;;;;;35.28;19.20;;;;;;;9.56;76.92;102649.34;4924573;28;20090;-54
2021/10/24 02:52:12;;;;;;;30.30;18.58;;;;;;;9.54;76.57;102648.38;4938212;28;20035;-55
2021/10/24 02:54:38;;;;;;;31.40;18.80;;;;;;;9.41;77.19;102640.81;4933171;28;20508;-57
2021/10/24 02:57:05;;;;;;;35.25;19.23;;;;;;;9.57;76.70;102645.94;4923136;28;20089;-50
2021/10/24 02:59:30;;;;;;;35.42;19.67;;;;;;;9.50;76.55;102641.25;4929182;28;20051;-55
2021/10/24 03:01:56;;;;;;;30.05;19.33;;;;;;;9.52;76.61;102638.69;4921477;28;20051;-54
2021/10/24 03:04:21;;;;;;;34.33;19.55;;;;;;;9.48;76.61;102642.88;4925975;28;20054;-54
2021/10/24 03:06:47;;;;;;;31.33;18.30;;;;;;;9.44;76.01;102638.38;4919808;28;20446;-58
2021/10/24 03:09:12;;;;;;;31.20;19.25;;;;;;;9.41;76.50;102639.94;4924245;28;20055;-54
2021/10/24 03:11:38;;;;;;;32.50;19.23;;;;;;;9.38;76.52;102634.59;4931429;28;20110;-54
2021/10/24 03:14:04;;;;;;;31.48;18.50;;;;;;;9.31;75.84;102634.31;4925322;28;20487;-52
2021/10/24 03:16:29;;;;;;;34.20;19.83;;;;;;;9.24;76.22;102633.94;4927533;28;20438;-51
2021/10/24 03:18:55;;;;;;;35.95;20.77;;;;;;;9.19;76.79;102635.44;4918007;28;20432;-53
2021/10/24 03:21:20;;;;;;;35.22;20.30;;;;;;;9.13;76.91;102636.06;4920618;28;20145;-56
2021/10/24 03:23:46;;;;;;;36.38;21.02;;;;;;;9.09;77.67;102626.31;4918269;28;20893;-53
2021/10/24 03:26:11;;;;;;;39.75;21.10;;;;;;;9.10;77.60;102625.47;4925242;28;20448;-53
2021/10/24 03:28:36;;;;;;;38.63;21.00;;;;;;;9.07;77.52;102627.06;4921788;29;20055;-55
2021/10/24 03:31:03;;;;;;;34.63;20.98;;;;;;;9.15;77.33;102625.72;4920755;28;20419;-55
2021/10/24 03:33:29;;;;;;;33.25;19.55;;;;;;;9.08;76.94;102626.25;4930494;28;20039;-53
2021/10/24 03:35:54;;;;;;;33.03;19.92;;;;;;;8.99;77.25;102633.59;4925932;29;20500;-55
2021/10/24 03:38:20;;;;;;;34.63;20.15;;;;;;;9.10;77.04;102622.00;4921809;28;20039;-54
2021/10/24 03:40:45;;;;;;;34.65;19.80;;;;;;;9.04;77.16;102619.09;4918449;28;20043;-56
2021/10/24 03:43:11;;;;;;;33.95;20.40;;;;;;;9.07;76.86;102619.25;4924676;28;20590;-53
2021/10/24 03:45:36;;;;;;;33.88;20.00;;;;;;;8.91;77.04;102626.31;4927839;29;20039;-55
2021/10/24 03:48:02;;;;;;;35.83;20.65;;;;;;;8.93;77.39;102622.09;4922104;28;20063;-55
2021/10/24 03:50:28;;;;;;;34.33;21.35;;;;;;;8.78;77.57;102621.34;4922498;28;20108;-55
2021/10/24 03:52:53;;;;;;;35.08;20.77;;;;;;;8.83;77.41;102619.88;4921215;28;20085;-55
2021/10/24 03:55:18;;;;;;;35.78;20.45;;;;;;;8.80;77.38;102617.13;4920920;28;20815;-55
2021/10/24 03:57:44;;;;;;;37.00;20.95;;;;;;;8.74;77.11;102624.63;4925818;28;20495;-53
2021/10/24 04:00:10;;;;;;;36.30;21.00;;;;;;;8.76;76.77;102617.78;4923834;28;20074;-54
2021/10/24 04:02:55;;;;;;;35.60;20.83;;;;;;;8.75;76.84;102621.22;4929197;29;20043;-54
2021/10/24 04:05:21;;;;;;;36.63;21.10;;;;;;;8.65;77.22;102619.00;4919538;28;20062;-50
2021/10/24 04:07:48;;;;;;;33.50;20.73;;;;;;;8.75;77.07;102609.91;4924154;28;20530;-52
2021/10/24 04:10:14;;;;;;;35.03;20.20;;;;;;;8.70;76.76;102612.31;4924610;28;20113;-55
2021/10/24 04:12:40;;;;;;;35.38;19.90;;;;;;;8.71;76.62;102610.59;4926351;28;20047;-55
2021/10/24 04:15:07;;;;;;;35.45;20.85;;;;;;;8.66;76.72;102610.34;4917574;28;20043;-55
2021/10/24 04:17:32;;;;;;;32.63;19.55;;;;;;;8.65;76.88;102606.00;4941833;28;20515;-55
2021/10/24 04:19:58;;;;;;;39.33;21.33;;;;;;;8.59;76.64;102605.69;4919987;28;20043;-55
2021/10/24 04:22:23;;;;;;;34.78;20.02;;;;;;;8.64;76.79;102616.31;4922943;29;20303;-56
2021/10/24 04:24:48;;;;;;;33.53;20.02;;;;;;;8.55;77.00;102607.22;4918942;28;20602;-54
2021/10/24 04:27:14;;;;;;;32.58;19.92;;;;;;;8.58;76.87;102611.72;4921621;28;20039;-54
2021/10/24 04:29:39;;;;;;;32.53;19.77;;;;;;;8.58;76.70;102605.59;4926370;28;20523;-54
2021/10/24 04:32:05;;;;;;;31.95;19.63;;;;;;;8.59;76.66;102599.59;4920313;29;20084;-53
2021/10/24 04:34:30;;;;;;;33.45;20.23;;;;;;;8.55;77.08;102599.44;4925766;28;20557;-56
2021/10/24 04:36:55;;;;;;;32.65;19.45;;;;;;;8.59;76.89;102597.00;4917424;28;20039;-53
2021/10/24 04:39:21;;;;;;;32.67;20.00;;;;;;;8.56;76.73;102589.94;4926450;28;20509;-52
2021/10/24 04:41:46;;;;;;;31.23;19.20;;;;;;;8.58;76.96;102597.81;4924469;28;20047;-53
2021/10/24 04:44:11;;;;;;;31.33;19.35;;;;;;;8.54;76.61;102582.06;4924366;28;20047;-55
2021/10/24 04:46:37;;;;;;;28.58;18.38;;;;;;;8.51;76.81;102575.81;4924066;28;20048;-57
2021/10/24 04:49:03;;;;;;;32.78;19.48;;;;;;;8.61;76.62;102571.94;4918153;28;20047;-53
2021/10/24 04:51:29;;;;;;;30.13;19.13;;;;;;;8.49;77.00;102570.53;4925802;28;20249;-55
2021/10/24 04:53:54;;;;;;;28.90;17.85;;;;;;;8.59;76.68;102577.09;4926774;28;20095;-52
2021/10/24 04:56:19;;;;;;;28.98;18.13;;;;;;;8.61;76.25;102575.44;4925562;28;20046;-55
2021/10/24 04:58:45;;;;;;;29.90;17.92;;;;;;;8.62;76.06;102569.44;4921822;28;20054;-54
2021/10/24 05:01:10;;;;;;;28.15;17.23;;;;;;;8.57;76.57;102572.63;4925316;28;20173;-53
2021/10/24 05:03:36;;;;;;;31.30;17.90;;;;;;;8.58;76.45;102566.63;4931232;28;20050;-52
2021/10/24 05:06:01;;;;;;;30.10;17.10;;;;;;;8.55;76.00;102568.25;4925414;28;20051;-56
2021/10/24 05:08:26;;;;;;;27.65;17.30;;;;;;;8.59;75.85;102563.22;4930911;28;20055;-52
2021/10/24 05:10:52;;;;;;;28.27;17.10;;;;;;;8.53;76.35;102563.81;4926849;29;20067;-55
2021/10/24 05:13:17;;;;;;;28.63;17.20;;;;;;;8.52;76.04;102559.41;4929970;28;20094;-55
2021/10/24 05:15:43;;;;;;;27.80;16.73;;;;;;;8.54;76.00;102550.84;4927119;28;20115;-51
2021/10/24 05:18:08;;;;;;;30.33;17.08;;;;;;;8.50;75.87;102553.25;4929401;28;20463;-54
2021/10/24 05:20:33;;;;;;;25.70;15.85;;;;;;;8.57;75.97;102555.31;4926736;28;20145;-52
2021/10/24 05:22:59;;;;;;;26.30;16.02;;;;;;;8.53;75.68;102550.81;4919426;28;20056;-50
2021/10/24 05:25:24;;;;;;;26.35;16.38;;;;;;;8.54;75.82;102544.75;4926936;29;20134;-53
2021/10/24 05:27:54;;;;;;;27.00;15.77;;;;;;;8.53;75.87;102538.69;4926526;28;20043;-55
2021/10/24 05:30:21;;;;;;;25.15;16.02;;;;;;;8.54;75.64;102536.97;4926654;28;20271;-55
2021/10/24 05:32:46;;;;;;;25.15;15.88;;;;;;;8.53;75.29;102535.22;4921522;28;20122;-59
2021/10/24 05:35:11;;;;;;;26.95;15.38;;;;;;;8.50;75.45;102535.03;4925512;28;20162;-55
2021/10/24 05:37:37;;;;;;;26.02;16.35;;;;;;;8.40;75.82;102536.31;4927375;28;20161;-51
2021/10/24 05:40:02;;;;;;;25.58;15.80;;;;;;;8.42;75.90;102531.19;4924143;28;20060;-54
2021/10/24 05:42:28;;;;;;;27.58;15.50;;;;;;;8.43;76.19;102528.66;4927643;28;20527;-53
2021/10/24 05:44:53;;;;;;;25.67;15.02;;;;;;;8.42;75.77;102524.28;4918084;28;20043;-50
2021/10/24 05:47:18;;;;;;;25.60;15.07;;;;;;;8.51;75.43;102516.03;4928586;28;20504;-52
2021/10/24 05:49:44;;;;;;;23.90;15.40;;;;;;;8.49;75.57;102520.25;4925962;28;20141;-53
2021/10/24 05:52:09;;;;;;;24.70;15.57;;;;;;;8.41;75.54;102511.22;4921559;28;20138;-55
2021/10/24 05:54:35;;;;;;;28.10;15.75;;;;;;;8.43;75.64;102512.16;4924998;28;20050;-56
2021/10/24 05:57:00;;;;;;;26.27;14.98;;;;;;;8.41;75.62;102512.13;4915020;28;20419;-50
2021/10/24 05:59:25;;;;;;;24.80;15.52;;;;;;;8.38;75.54;102500.66;4925298;28;20120;-55
2021/10/24 06:01:50;;;;;;;23.23;14.40;;;;;;;8.44;75.31;102504.47;4922361;28;20605;-55
2021/10/24 06:04:16;;;;;;;26.35;15.32;;;;;;;8.41;75.13;102511.22;4929905;29;20146;-50
2021/10/24 06:06:41;;;;;;;24.27;14.93;;;;;;;8.31;75.41;102506.38;4924458;28;20089;-54
2021/10/24 06:09:07;;;;;;;23.50;14.95;;;;;;;8.32;75.68;102502.97;4916480;28;20051;-53
2021/10/24 06:11:35;;;;;;;23.67;15.20;;;;;;;8.31;75.42;102503.78;4923501;28;20515;-54
2021/10/24 06:14:01;;;;;;;25.08;15.02;;;;;;;8.25;75.52;102501.75;4925812;28;20418;-55
2021/10/24 06:16:27;;;;;;;26.30;15.77;;;;;;;8.19;75.86;102493.66;4911635;29;20035;-54
2021/10/24 06:18:52;;;;;;;25.38;14.98;;;;;;;8.26;75.70;102497.44;4919313;28;20604;-54
2021/10/24 06:21:17;;;;;;;21.05;13.55;;;;;;;8.23;75.56;102502.50;4930548;28;20125;-55
2021/10/24 06:23:43;;;;;;;23.20;14.57;;;;;;;8.20;74.96;102500.63;4925158;28;20067;-55
2021/10/24 06:26:08;;;;;;;28.50;15.65;;;;;;;8.15;75.93;102499.53;4923616;28;20247;-50
2021/10/24 06:28:34;;;;;;;26.63;15.95;;;;;;;8.20;76.16;102499.75;4926362;28;20431;-53
2021/10/24 06:31:00;;;;;;;24.35;15.35;;;;;;;8.23;75.69;102493.00;4915070;28;20039;-54
2021/10/24 06:33:25;;;;;;;24.88;15.40;;;;;;;8.21;75.76;102496.34;4928618;28;20515;-54
2021/10/24 06:35:51;;;;;;;22.77;15.02;;;;;;;8.21;75.89;102492.03;4925582;28;20069;-55
2021/10/24 06:38:18;;;;;;;25.63;15.32;;;;;;;8.26;75.47;102485.34;4924377;28;20051;-51
2021/10/24 06:40:44;;;;;;;23.02;14.88;;;;;;;8.26;75.47;102494.84;4921935;29;20355;-56
2021/10/24 06:43:10;;;;;;;24.85;15.10;;;;;;;8.29;75.36;102493.31;4913418;28;20158;-54
2021/10/24 06:45:35;;;;;;;25.45;15.27;;;;;;;8.31;75.35;102496.00;4921444;28;20610;-55
2021/10/24 06:48:03;;;;;;;24.25;15.35;;;;;;;8.31;75.59;102496.00;4926397;28;20050;-56
2021/10/24 06:50:29;;;;;;;26.83;14.48;;;;;;;8.37;75.29;102486.78;4925228;28;20265;-54
2021/10/24 06:52:55;;;;;;;24.20;14.90;;;;;;;8.41;74.97;102490.44;4917489;28;20059;-55
2021/10/24 06:55:20;;;;;;;22.35;14.07;;;;;;;8.46;74.75;102487.25;4928375;28;20422;-54
2021/10/24 06:57:46;;;;;;;21.02;13.93;;;;;;;8.49;74.76;102491.66;4920636;28;20402;-55
2021/10/24 07:00:12;;;;;;;21.20;13.68;;;;;;;8.53;74.63;102485.81;4923629;28;20139;-56
2021/10/24 07:02:37;;;;;;;22.45;13.68;;;;;;;8.55;74.13;102484.16;4924110;29;20063;-54
2021/10/24 07:05:05;;;;;;;20.98;13.20;;;;;;;8.55;74.22;102489.38;4920556;28;20312;-54
2021/10/24 07:07:31;;;;;;;20.25;13.05;;;;;;;8.64;73.59;102495.00;4925502;28;20074;-55
2021/10/24 07:09:56;;;;;;;19.73;12.50;;;;;;;8.67;73.85;102499.44;4924584;28;20199;-54
2021/10/24 07:12:21;;;;;;;22.02;13.15;;;;;;;8.66;73.51;102498.56;4924840;28;20050;-53
2021/10/24 07:14:47;;;;;;;20.40;13.45;;;;;;;8.76;73.47;102500.78;4921195;28;20447;-56
2021/10/24 07:17:12;;;;;;;19.70;12.63;;;;;;;8.79;73.29;102498.31;4919621;28;20749;-56
2021/10/24 07:19:37;;;;;;;18.27;12.07;;;;;;;8.86;73.06;102494.28;4929661;28;20274;-56
2021/10/24 07:22:03;;;;;;;21.58;12.88;;;;;;;8.93;73.17;102498.94;4922890;28;20051;-56
2021/10/24 07:24:28;;;;;;;24.02;13.10;;;;;;;8.90;73.15;102493.63;4925819;28;20431;-57
2021/10/24 07:26:54;;;;;;;21.98;12.30;;;;;;;8.96;72.96;102479.16;4912594;28;20308;-54
2021/10/24 07:29:19;;;;;;;18.45;12.63;;;;;;;8.99;72.64;102487.94;4923225;28;20078;-54
2021/10/24 07:31:44;;;;;;;21.60;12.65;;;;;;;9.10;72.47;102485.00;4921983;28;20125;-56
2021/10/24 07:34:10;;;;;;;19.20;12.82;;;;;;;9.07;71.93;102484.88;4925340;28;20140;-57
2021/10/24 07:36:35;;;;;;;19.98;12.73;;;;;;;9.14;71.66;102488.63;4922551;28;20043;-53
2021/10/24 07:39:01;;;;;;;18.00;12.23;;;;;;;9.14;71.15;102481.72;4919337;28;21239;-54
2021/10/24 07:41:26;;;;;;;20.23;12.80;;;;;;;9.06;72.25;102483.09;4924139;28;20427;-56
2021/10/24 07:43:52;;;;;;;22.75;12.73;;;;;;;9.08;72.05;102481.44;4925776;28;20407;-56
2021/10/24 07:46:17;;;;;;;23.90;12.90;;;;;;;9.17;71.96;102475.75;4942943;28;20452;-56
2021/10/24 07:48:43;;;;;;;19.73;13.45;;;;;;;9.28;71.40;102475.41;4929370;28;20094;-53
2021/10/24 07:51:08;;;;;;;20.00;13.27;;;;;;;9.37;71.63;102482.72;4932935;28;20047;-51
2021/10/24 07:53:34;;;;;;;21.95;13.40;;;;;;;9.26;71.45;102482.28;4925375;28;20358;-56
2021/10/24 07:56:02;;;;;;;19.55;12.68;;;;;;;9.40;70.53;102479.34;4920662;28;20506;-54
2021/10/24 07:58:27;;;;;;;23.67;13.80;;;;;;;9.45;70.92;102480.47;4919980;28;20058;-54
2021/10/24 08:00:53;;;;;;;20.52;13.25;;;;;;;9.46;70.92;102479.63;4918358;28;20039;-56
2021/10/24 08:03:19;;;;;;;23.75;13.90;;;;;;;9.60;70.52;102484.59;4920592;28;20047;-55
2021/10/24 08:05:45;;;;;;;19.63;13.18;;;;;;;9.45;70.43;102473.56;4922665;28;20102;-55
2021/10/24 08:08:10;;;;;;;19.98;12.75;;;;;;;9.61;70.38;102469.88;4923618;28;20043;-54
2021/10/24 08:10:36;;;;;;;22.08;13.13;;;;;;;9.77;70.19;102467.97;4918178;28;20043;-53
2021/10/24 08:13:02;;;;;;;20.42;12.95;;;;;;;9.99;69.31;102468.88;4914095;28;20190;-55
2021/10/24 08:15:27;;;;;;;19.17;12.45;;;;;;;10.02;69.43;102463.78;4917075;28;20225;-53
2021/10/24 08:17:53;;;;;;;20.20;13.07;;;;;;;10.10;68.79;102452.84;4924170;28;20040;-55
2021/10/24 08:20:18;;;;;;;20.85;13.30;;;;;;;10.16;68.47;102457.41;4922806;28;20741;-55
2021/10/24 08:22:44;;;;;;;21.42;13.43;;;;;;;10.30;68.38;102455.41;4916646;28;20067;-55
2021/10/24 08:25:10;;;;;;;20.38;12.95;;;;;;;10.28;68.82;102455.34;4917672;29;20062;-55
2021/10/24 08:27:36;;;;;;;19.23;12.90;;;;;;;10.50;67.93;102455.34;4917921;28;20047;-56
2021/10/24 08:30:04;;;;;;;18.73;12.60;;;;;;;10.48;68.21;102446.59;4916656;28;20073;-57
2021/10/24 08:32:30;;;;;;;20.90;12.75;;;;;;;10.48;68.39;102459.63;4919679;28;20049;-54
2021/10/24 08:34:55;;;;;;;19.92;12.93;;;;;;;10.73;67.58;102443.19;4914994;28;20051;-54
2021/10/24 08:37:21;;;;;;;19.50;12.45;;;;;;;10.60;67.91;102445.28;4920845;28;20276;-56
2021/10/24 08:39:52;;;;;;;21.45;13.15;;;;;;;10.90;67.76;102436.00;4924220;28;20137;-56
2021/10/24 08:42:31;;;;;;;20.17;12.27;;;;;;;10.88;66.53;102432.41;4912961;28;20828;-55
2021/10/24 08:44:58;;;;;;;19.30;11.68;;;;;;;10.76;66.77;102422.44;4905450;28;20154;-56
2021/10/24 08:47:28;;;;;;;18.90;11.70;;;;;;;11.07;66.46;102421.81;4921888;28;20044;-56
2021/10/24 08:49:53;;;;;;;20.15;11.63;;;;;;;11.22;65.99;102424.97;4933250;28;20051;-54
2021/10/24 08:52:23;;;;;;;16.17;10.50;;;;;;;11.33;64.41;102415.81;4921777;28;20051;-55
2021/10/24 08:54:50;;;;;;;16.00;10.35;;;;;;;11.31;64.35;102413.97;4914192;28;20069;-54
2021/10/24 08:57:42;;;;;;;19.30;10.77;;;;;;;11.38;63.45;102418.56;4918942;28;20212;-55
2021/10/24 09:00:08;;;;;;;15.93;9.82;;;;;;;11.59;62.99;102416.69;4919898;28;20574;-55
2021/10/24 09:02:57;;;;;;;20.15;10.13;;;;;;;11.78;62.15;102415.59;4922904;28;20081;-55
2021/10/24 09:05:36;;;;;;;13.77;9.25;;;;;;;12.01;62.52;102413.75;4918893;28;20054;-56
2021/10/24 09:08:03;;;;;;;13.45;9.40;;;;;;;12.07;61.57;102407.00;4919916;28;20112;-54
2021/10/24 09:10:59;;;;;;;16.40;8.90;;;;;;;12.31;61.37;102411.22;4921067;28;20558;-54
2021/10/24 09:13:29;;;;;;;15.80;8.90;;;;;;;12.39;60.94;102410.59;4921219;28;20575;-50
2021/10/24 09:16:02;;;;;;;16.08;8.98;;;;;;;12.40;60.81;102401.91;4936020;28;20167;-54
2021/10/24 09:18:38;;;;;;;12.02;8.57;;;;;;;12.39;59.49;102404.47;4919333;28;20043;-56
2021/10/24 09:21:17;;;;;;;14.10;8.00;;;;;;;12.54;60.34;102403.22;4916471;28;20155;-51
2021/10/24 09:24:03;;;;;;;12.95;8.52;;;;;;;12.46;59.19;102407.31;4922228;28;20644;-55
2021/10/24 09:26:30;;;;;;;14.07;8.68;;;;;;;12.54;59.71;102402.31;4917894;28;20039;-53
2021/10/24 09:29:07;;;;;;;13.32;8.63;;;;;;;12.58;59.29;102401.56;4912475;28;20047;-54
2021/10/24 09:31:37;;;;;;;12.32;8.60;;;;;;;12.56;59.52;102391.03;4922007;28;20381;-52
2021/10/24 09:34:16;;;;;;;14.88;8.55;;;;;;;12.24;59.47;102381.38;4924457;28;20069;-54
2021/10/24 09:36:58;;;;;;;15.38;8.85;;;;;;;12.30;60.88;102384.16;4919004;28;20396;-56
2021/10/24 09:39:27;;;;;;;12.32;8.32;;;;;;;12.42;59.79;102381.91;4918931;28;20113;-54
2021/10/24 09:42:26;;;;;;;15.48;8.60;;;;;;;12.27;58.86;102385.78;4924018;28;21784;-54
2021/10/24 09:45:04;;;;;;;14.13;8.25;;;;;;;12.38;60.09;102381.78;4916233;28;20039;-54
2021/10/24 09:47:40;;;;;;;14.45;9.10;;;;;;;12.39;60.86;102387.03;4921218;28;20361;-54
2021/10/24 09:50:32;;;;;;;15.43;8.82;;;;;;;12.45;60.27;102391.56;4922148;28;20047;-53
2021/10/24 09:53:30;;;;;;;13.27;7.93;;;;;;;12.42;60.38;102381.03;4915274;28;20215;-55
2021/10/24 09:55:55;;;;;;;12.95;8.05;;;;;;;12.42;61.08;102384.53;4918180;28;20070;-52
2021/10/24 09:58:22;;;;;;;13.80;8.40;;;;;;;12.20;61.15;102384.72;4922778;28;20035;-53
2021/10/24 10:00:47;;;;;;;13.90;8.65;;;;;;;12.26;60.85;102389.28;4921317;28;20114;-59
2021/10/24 10:03:21;;;;;;;16.25;8.93;;;;;;;12.24;59.89;102377.88;4925747;28;20174;-55
2021/10/24 10:05:46;;;;;;;15.38;8.63;;;;;;;12.39;60.01;102380.91;4939368;28;20416;-55
2021/10/24 10:08:12;;;;;;;15.65;9.20;;;;;;;12.18;60.79;102376.84;4922892;28;20042;-53
2021/10/24 10:10:42;;;;;;;11.65;8.18;;;;;;;12.36;59.12;102370.38;4925134;28;20483;-52
2021/10/24 10:13:11;;;;;;;14.80;8.45;;;;;;;12.47;60.00;102375.09;4931085;28;20417;-55
2021/10/24 10:15:40;;;;;;;14.25;8.75;;;;;;;12.46;59.44;102378.53;4938235;28;20043;-55
2021/10/24 10:18:05;;;;;;;12.75;8.18;;;;;;;12.52;60.25;102377.84;4929911;28;20599;-55
2021/10/24 10:20:35;;;;;;;13.65;8.63;;;;;;;12.31;59.74;102378.09;4925635;29;20383;-55
2021/10/24 10:23:04;;;;;;;13.48;8.88;;;;;;;12.10;60.21;102374.81;4916572;28;20043;-57
2021/10/24 10:25:31;;;;;;;13.55;8.38;;;;;;;12.42;60.35;102371.47;4917324;28;20047;-54
2021/10/24 10:27:57;;;;;;;12.70;8.80;;;;;;;12.37;59.55;102370.44;4919068;28;20418;-55
2021/10/24 10:30:42;;;;;;;13.57;8.35;;;;;;;12.49;58.94;102370.81;4925273;28;20086;-55
2021/10/24 10:33:33;;;;;;;14.27;9.00;;;;;;;12.55;59.57;102359.63;4933025;28;20070;-53
2021/10/24 10:36:04;;;;;;;14.93;9.05;;;;;;;12.52;60.83;102357.78;4921068;28;20066;-54
2021/10/24 10:38:42;;;;;;;13.52;8.70;;;;;;;12.26;60.78;102376.19;4919490;28;20063;-55
2021/10/24 10:41:10;;;;;;;14.55;8.68;;;;;;;12.51;60.73;102370.81;4922455;28;21704;-54
2021/10/24 10:43:35;;;;;;;14.85;9.10;;;;;;;12.44;59.91;102367.13;4941032;28;20082;-55
2021/10/24 10:46:03;;;;;;;14.05;9.30;;;;;;;12.44;59.76;102367.13;4921957;28;20135;-54
2021/10/24 10:48:43;;;;;;;18.92;9.00;;;;;;;12.57;60.53;102357.91;4916686;28;20517;-55
2021/10/24 10:51:25;;;;;;;14.93;8.95;;;;;;;12.62;59.25;102356.34;4915183;28;20770;-56
2021/10/24 10:54:01;;;;;;;13.95;8.35;;;;;;;12.70;59.90;102353.94;4921056;28;20036;-54
2021/10/24 10:56:28;;;;;;;13.23;8.70;;;;;;;12.74;60.73;102347.97;4900358;29;20039;-56
2021/10/24 10:58:58;;;;;;;14.40;8.77;;;;;;;12.75;58.93;102353.22;4913064;28;20531;-55
2021/10/24 11:01:31;;;;;;;13.05;8.90;;;;;;;12.84;60.19;102345.63;4920546;28;20051;-56
2021/10/24 11:04:19;;;;;;;13.02;8.70;;;;;;;12.92;60.66;102353.69;4926017;28;20078;-56
2021/10/24 11:06:47;;;;;;;15.05;8.77;;;;;;;12.94;60.71;102362.47;4934104;28;20046;-54
2021/10/24 11:09:37;;;;;;;14.23;8.50;;;;;;;12.99;59.88;102359.13;4920726;28;20104;-53
2021/10/24 11:12:05;;;;;;;15.50;8.65;;;;;;;13.01;60.67;102349.59;4922833;28;20042;-55
2021/10/24 11:14:33;;;;;;;13.10;8.73;;;;;;;13.14;60.12;102356.06;4916555;28;20586;-55
2021/10/24 11:16:59;;;;;;;13.48;8.80;;;;;;;13.11;61.45;102348.13;4914387;28;20135;-53